This is the latest recevied weather packets stored in our database for station/object VK2BOS. If no packets are shown the sender has not sent any weather packets the latest 10 day(s).
| Time | Temp. | Humidity | Pressure | Rain* | Wind** | Luminosity | Snow |
|---|---|---|---|---|---|---|---|
| 1777363335 | 18.89° C | 71% | 1022.3 hPa | 0 mm | - | 0 W/m² | - |
| 1777359604 | 21.11° C | 61% | 1021.5 hPa | 0 mm | - | 9 W/m² | - |
| 1777359004 | 21.11° C | 61% | 1021.6 hPa | 0 mm | - | 12 W/m² | - |
| 1777358533 | 21.11° C | 60% | 1021.5 hPa | 0 mm | - | 14 W/m² | - |
| 1777354334 | 23.33° C | 55% | 1021.5 hPa | 0 mm | - | 35 W/m² | - |
| 1777351204 | 23.89° C | 54% | 1021.7 hPa | 0 mm | - | 49 W/m² | - |
| 1777346404 | 23.33° C | 56% | 1021.9 hPa | 0 mm | - | 107 W/m² | - |
| 1777345803 | 23.33° C | 55% | 1022 hPa | 0 mm | - | 76 W/m² | - |
| 1777345204 | 23.33° C | 59% | 1022.2 hPa | 0 mm | - | 468 W/m² | - |
| 1777344004 | 23.33° C | 57% | 1022.5 hPa | 0 mm | - | 77 W/m² | - |
| 1777343404 | 23.33° C | 60% | 1022.7 hPa | 0 mm | - | 77 W/m² | - |
| 1777341604 | 22.78° C | 59% | 1023 hPa | 0 mm | - | 712 W/m² | - |
| 1777330804 | 10.56° C | 95% | 1025.1 hPa | 0 mm | - | 0 W/m² | - |
| 1777325403 | 10.56° C | 95% | 1024.2 hPa | 0 mm | - | 0 W/m² | - |
| 1777320003 | 10.56° C | 95% | 1023.2 hPa | 0 mm | - | 0 W/m² | - |
| 1777315804 | 11.11° C | 95% | 1023 hPa | 0 mm | - | 0 W/m² | - |
| 1777314138 | 11.11° C | 95% | 1022.8 hPa | 0 mm | - | 0 W/m² | - |
| 1777312803 | 11.11° C | 95% | 1022.6 hPa | 0 mm | - | 0 W/m² | - |
| 1777309803 | 11.67° C | 94% | 1022.5 hPa | 0 mm | - | 0 W/m² | - |
| 1777308604 | 11.67° C | 94% | 1022.6 hPa | 0 mm | - | 0 W/m² | - |
| 1777307538 | 11.67° C | 94% | 1022.7 hPa | 0 mm | - | 0 W/m² | - |
| 1777306203 | 11.67° C | 94% | 1022.9 hPa | 0 mm | - | 0 W/m² | - |
| 1777300334 | 12.78° C | 93% | 1023.4 hPa | 0 mm | - | 0 W/m² | - |
* Rain latest hour (hover to see other rain measurements)
** Current wind speed in m/s (hover to see current wind gust speed)